createdAt,value
2023-03-26T00:00:00.437Z,11.80
2023-03-26T00:02:29.879Z,11.80
2023-03-26T00:04:58.253Z,11.80
2023-03-26T00:07:28.000Z,11.50
2023-03-26T00:09:58.089Z,12.00
2023-03-26T00:12:26.637Z,11.80
2023-03-26T00:14:56.402Z,11.80
2023-03-26T00:17:24.784Z,11.80
2023-03-26T00:19:54.838Z,11.70
2023-03-26T00:22:23.683Z,11.80
2023-03-26T00:24:52.198Z,11.70
2023-03-26T00:27:23.771Z,11.70
2023-03-26T00:29:52.159Z,11.70
2023-03-26T00:32:21.855Z,11.70
2023-03-26T00:34:52.023Z,11.70
2023-03-26T00:37:20.421Z,11.70
2023-03-26T00:39:49.164Z,11.70
2023-03-26T00:42:17.520Z,11.70
2023-03-26T00:44:46.227Z,11.70
2023-03-26T00:47:14.486Z,11.70
2023-03-26T00:49:46.797Z,11.70
2023-03-26T00:52:18.731Z,11.70
2023-03-26T00:54:47.364Z,11.70
2023-03-26T00:57:22.756Z,11.70
2023-03-26T00:59:57.716Z,11.70
2023-03-26T01:02:27.423Z,11.70
2023-03-26T01:05:02.929Z,11.70
2023-03-26T01:07:31.599Z,11.70
2023-03-26T01:10:01.349Z,11.70
2023-03-26T01:12:32.945Z,11.70
2023-03-26T01:15:04.001Z,11.70
2023-03-26T01:17:35.054Z,11.70
2023-03-26T01:20:16.637Z,11.70
2023-03-26T01:22:50.384Z,11.70
2023-03-26T01:25:21.354Z,11.70
2023-03-26T01:27:51.612Z,11.70
2023-03-26T01:30:25.691Z,11.70
2023-03-26T01:33:03.288Z,11.70
2023-03-26T01:35:43.926Z,11.70
2023-03-26T01:38:23.908Z,11.70
2023-03-26T01:40:58.406Z,11.70
2023-03-26T01:43:33.158Z,11.70
2023-03-26T01:46:04.827Z,11.70
2023-03-26T01:48:37.288Z,11.70
2023-03-26T01:51:07.118Z,11.70
2023-03-26T01:53:39.339Z,11.70
2023-03-26T01:56:15.256Z,11.70
2023-03-26T01:58:56.319Z,11.70
2023-03-26T02:01:31.266Z,11.70
2023-03-26T02:04:08.355Z,11.70
2023-03-26T02:06:44.234Z,11.70
2023-03-26T02:09:17.447Z,11.70
2023-03-26T02:11:49.351Z,11.70
2023-03-26T02:14:18.323Z,11.70
2023-03-26T02:16:48.045Z,11.70
2023-03-26T02:19:24.286Z,11.70
2023-03-26T02:21:52.698Z,11.60
2023-03-26T02:24:22.151Z,11.70
2023-03-26T02:26:58.131Z,11.70
2023-03-26T02:29:27.889Z,11.60
2023-03-26T02:31:56.381Z,11.60
2023-03-26T02:34:24.674Z,11.60
2023-03-26T02:36:57.156Z,11.60
2023-03-26T02:39:26.223Z,11.70
2023-03-26T02:42:02.976Z,11.60
2023-03-26T02:44:35.692Z,11.60
2023-03-26T02:47:04.013Z,11.60
2023-03-26T02:49:50.978Z,11.60
2023-03-26T02:52:43.106Z,11.60
2023-03-26T02:55:11.522Z,11.60
2023-03-26T02:57:43.391Z,11.60
2023-03-26T03:00:17.670Z,11.60
2023-03-26T03:02:49.382Z,11.30
2023-03-26T03:05:33.277Z,11.60
2023-03-26T03:08:20.675Z,11.60
2023-03-26T03:11:04.054Z,11.60
2023-03-26T03:13:43.121Z,11.60
2023-03-26T03:16:12.018Z,11.60
2023-03-26T03:18:40.321Z,11.60
2023-03-26T03:21:09.557Z,11.60
2023-03-26T03:23:37.822Z,11.60
2023-03-26T03:26:15.821Z,11.60
2023-03-26T03:28:50.761Z,11.60
2023-03-26T03:31:19.638Z,11.60
2023-03-26T03:33:48.071Z,11.60
2023-03-26T03:36:22.025Z,11.60
2023-03-26T03:39:02.573Z,11.60
2023-03-26T03:41:31.772Z,11.60
2023-03-26T03:44:04.151Z,11.60
2023-03-26T03:46:34.105Z,11.60
2023-03-26T03:49:02.805Z,11.60
2023-03-26T03:51:42.521Z,11.60
2023-03-26T03:54:20.199Z,11.60
2023-03-26T03:56:49.175Z,11.60
2023-03-26T03:59:37.549Z,11.60
2023-03-26T04:02:09.565Z,11.60
2023-03-26T04:04:46.426Z,11.60
2023-03-26T04:07:17.639Z,11.60
2023-03-26T04:10:05.332Z,11.60
2023-03-26T04:12:53.702Z,11.60
2023-03-26T04:15:36.048Z,11.60
2023-03-26T04:18:10.311Z,11.60
2023-03-26T04:20:41.096Z,11.60
2023-03-26T04:23:14.611Z,11.60
2023-03-26T04:25:48.540Z,11.70
2023-03-26T04:28:30.501Z,11.60
2023-03-26T04:31:24.151Z,11.60
2023-03-26T04:33:55.930Z,11.70
2023-03-26T04:36:28.819Z,11.60
2023-03-26T04:39:02.502Z,11.60
2023-03-26T04:41:51.961Z,11.60
2023-03-26T04:44:22.644Z,11.60
2023-03-26T04:47:19.008Z,11.60
2023-03-26T04:49:49.038Z,11.60
2023-03-26T04:52:19.245Z,11.60
2023-03-26T04:54:50.446Z,11.60
2023-03-26T04:57:24.812Z,11.60
2023-03-26T05:00:16.692Z,11.60
2023-03-26T05:02:54.097Z,11.50
2023-03-26T05:05:23.611Z,11.70
2023-03-26T05:07:52.710Z,11.60
2023-03-26T05:10:23.254Z,11.60
2023-03-26T05:12:56.482Z,11.60
2023-03-26T05:15:28.413Z,11.60
2023-03-26T05:18:27.458Z,11.60
2023-03-26T05:20:57.491Z,11.60
2023-03-26T05:23:27.284Z,11.60
2023-03-26T05:26:11.907Z,11.60
2023-03-26T05:28:40.332Z,11.60
2023-03-26T05:31:33.306Z,11.50
2023-03-26T05:34:04.678Z,11.50
2023-03-26T05:36:33.461Z,11.50
2023-03-26T05:39:12.780Z,11.50
2023-03-26T05:41:59.629Z,11.50
2023-03-26T05:44:38.351Z,11.60
2023-03-26T05:47:17.257Z,11.50
2023-03-26T05:49:48.250Z,11.50
2023-03-26T05:52:19.131Z,11.60
2023-03-26T05:55:08.406Z,11.50
2023-03-26T05:57:56.398Z,11.50
2023-03-26T06:00:43.376Z,11.50
2023-03-26T06:03:14.852Z,11.50
2023-03-26T06:06:07.585Z,11.50
2023-03-26T06:08:43.056Z,11.50
2023-03-26T06:11:12.687Z,11.50
2023-03-26T06:13:41.289Z,11.50
2023-03-26T06:16:13.682Z,11.50
2023-03-26T06:19:08.573Z,11.50
2023-03-26T06:21:52.121Z,11.50
2023-03-26T06:24:27.004Z,11.50
2023-03-26T06:27:08.356Z,11.50
2023-03-26T06:30:10.142Z,11.50
2023-03-26T06:32:50.305Z,11.50
2023-03-26T06:35:24.674Z,11.50
2023-03-26T06:37:54.769Z,11.60
2023-03-26T06:40:23.510Z,11.50
2023-03-26T06:43:14.718Z,11.60
2023-03-26T06:46:12.492Z,11.50
2023-03-26T06:49:16.467Z,11.50
2023-03-26T06:52:03.736Z,11.60
2023-03-26T06:54:53.741Z,11.60
2023-03-26T06:57:45.897Z,11.60
2023-03-26T07:00:37.321Z,11.60
2023-03-26T07:03:31.984Z,11.60
2023-03-26T07:06:19.030Z,11.60
2023-03-26T07:09:08.551Z,11.60
2023-03-26T07:12:08.190Z,11.60
2023-03-26T07:15:06.887Z,11.60
2023-03-26T07:17:57.151Z,11.60
2023-03-26T07:20:30.236Z,11.60
2023-03-26T07:22:59.194Z,11.60
2023-03-26T07:26:00.097Z,11.60
2023-03-26T07:29:04.003Z,11.60
2023-03-26T07:32:09.075Z,11.60
2023-03-26T07:35:02.890Z,11.60
2023-03-26T07:37:48.013Z,11.60
2023-03-26T07:40:55.356Z,11.60
2023-03-26T07:44:20.464Z,11.60
2023-03-26T07:47:09.703Z,11.60
2023-03-26T07:49:57.936Z,11.60
2023-03-26T07:52:39.572Z,11.60
2023-03-26T07:55:18.806Z,11.90
2023-03-26T07:58:19.349Z,11.60
2023-03-26T08:01:13.252Z,11.60
2023-03-26T08:03:58.928Z,11.70
2023-03-26T08:07:17.219Z,11.60
2023-03-26T08:10:13.656Z,11.70
2023-03-26T08:13:18.227Z,11.70
2023-03-26T08:15:54.472Z,11.70
2023-03-26T08:18:33.673Z,11.70
2023-03-26T08:21:08.102Z,11.70
2023-03-26T08:23:50.516Z,11.70
2023-03-26T08:26:29.646Z,11.70
2023-03-26T08:29:08.825Z,11.70
2023-03-26T08:31:40.189Z,11.70
2023-03-26T08:34:13.332Z,11.70
2023-03-26T08:36:42.312Z,11.70
2023-03-26T08:39:10.668Z,11.70
2023-03-26T08:42:12.497Z,11.70
2023-03-26T08:45:10.911Z,11.70
2023-03-26T08:48:09.907Z,11.70
2023-03-26T08:51:10.649Z,11.50
2023-03-26T08:54:07.544Z,11.70
2023-03-26T08:56:47.949Z,11.70
2023-03-26T08:59:47.132Z,11.70
2023-03-26T09:02:43.081Z,11.70
2023-03-26T09:05:54.890Z,11.70
2023-03-26T09:08:59.797Z,11.70
2023-03-26T09:11:56.536Z,11.70
2023-03-26T09:15:21.081Z,11.70
2023-03-26T09:18:14.907Z,11.70
2023-03-26T09:21:13.417Z,11.70
2023-03-26T09:24:04.978Z,11.80
2023-03-26T09:26:48.255Z,11.70
2023-03-26T09:30:04.435Z,11.70
2023-03-26T09:32:57.861Z,11.70
2023-03-26T09:35:53.283Z,11.80
2023-03-26T09:38:53.921Z,11.70
2023-03-26T09:41:39.352Z,11.70
2023-03-26T09:44:40.415Z,11.70
2023-03-26T09:47:41.462Z,11.70
2023-03-26T09:50:31.131Z,11.70
2023-03-26T09:53:17.980Z,11.70
2023-03-26T09:56:07.873Z,11.70
2023-03-26T09:59:03.580Z,11.70
2023-03-26T10:01:40.649Z,11.70
2023-03-26T10:04:43.184Z,11.70
2023-03-26T10:07:23.041Z,11.70
2023-03-26T10:09:57.984Z,11.70
2023-03-26T10:12:34.228Z,11.70
2023-03-26T10:15:16.078Z,11.70
2023-03-26T10:17:57.202Z,11.70
2023-03-26T10:20:38.936Z,11.60
2023-03-26T10:23:30.188Z,11.60
2023-03-26T10:26:09.668Z,11.60
2023-03-26T10:29:04.912Z,11.60
2023-03-26T10:31:53.810Z,11.60
2023-03-26T10:34:49.462Z,11.80
2023-03-26T10:37:26.426Z,11.60
2023-03-26T10:40:20.117Z,11.60
2023-03-26T10:43:08.962Z,11.60
2023-03-26T10:46:02.095Z,11.60
2023-03-26T10:48:45.583Z,11.60
2023-03-26T10:51:48.634Z,11.60
2023-03-26T10:54:36.165Z,11.60
2023-03-26T10:57:13.163Z,11.60
2023-03-26T10:59:41.756Z,11.60
2023-03-26T11:02:29.621Z,11.60
2023-03-26T11:05:19.366Z,11.60
2023-03-26T11:07:53.870Z,11.60
2023-03-26T11:10:41.320Z,11.60
2023-03-26T11:13:18.824Z,11.60
2023-03-26T11:15:54.509Z,11.60
2023-03-26T11:18:26.244Z,11.60
2023-03-26T11:21:19.185Z,11.70
2023-03-26T11:24:05.105Z,11.90
2023-03-26T11:26:46.427Z,11.60
2023-03-26T11:29:35.792Z,11.70
2023-03-26T11:32:07.677Z,11.70
2023-03-26T11:34:40.214Z,11.60
2023-03-26T11:37:17.618Z,11.70
2023-03-26T11:39:53.470Z,11.70
2023-03-26T11:42:29.890Z,11.70
2023-03-26T11:45:01.915Z,11.70
2023-03-26T11:47:36.504Z,11.70
2023-03-26T11:50:09.642Z,11.70
2023-03-26T11:52:38.498Z,11.70
2023-03-26T11:55:08.078Z,11.70
2023-03-26T11:57:39.475Z,11.70
2023-03-26T12:00:17.692Z,11.60
2023-03-26T12:02:47.944Z,11.60
2023-03-26T12:05:21.937Z,11.60
2023-03-26T12:07:58.440Z,11.60
2023-03-26T12:10:31.497Z,11.60
2023-03-26T12:13:04.783Z,11.60
2023-03-26T12:15:33.389Z,11.60
2023-03-26T12:18:21.573Z,11.60
2023-03-26T12:20:50.635Z,11.60
2023-03-26T12:23:35.907Z,11.60
2023-03-26T12:26:15.374Z,11.60
2023-03-26T12:28:50.425Z,11.60
2023-03-26T12:31:20.256Z,11.60
2023-03-26T12:34:07.742Z,11.60
2023-03-26T12:36:36.522Z,11.60
2023-03-26T12:40:06.717Z,11.60
2023-03-26T12:44:51.172Z,11.60
2023-03-26T12:45:21.189Z,11.60
2023-03-26T12:48:02.243Z,11.60
2023-03-26T12:50:52.451Z,11.60
2023-03-26T12:53:34.977Z,11.60
2023-03-26T12:56:12.310Z,11.60
2023-03-26T12:59:01.029Z,11.60
2023-03-26T13:01:40.213Z,11.60
2023-03-26T13:04:27.534Z,11.60
2023-03-26T13:07:02.740Z,11.60
2023-03-26T13:09:53.803Z,11.60
2023-03-26T13:12:34.436Z,11.70
2023-03-26T13:15:14.577Z,11.70
2023-03-26T13:17:55.111Z,11.70
2023-03-26T13:20:48.956Z,11.70
2023-03-26T13:23:27.772Z,11.70
2023-03-26T13:26:06.172Z,11.70
2023-03-26T13:28:42.923Z,11.70
2023-03-26T13:31:20.628Z,11.70
2023-03-26T13:34:00.279Z,11.70
2023-03-26T13:36:36.946Z,11.70
2023-03-26T13:39:18.077Z,11.70
2023-03-26T13:42:00.122Z,11.70
2023-03-26T13:44:38.643Z,11.80
2023-03-26T13:47:11.553Z,11.80
2023-03-26T13:49:45.283Z,11.80
2023-03-26T13:52:20.696Z,11.80
2023-03-26T13:54:55.907Z,11.80
2023-03-26T13:57:29.551Z,11.80
2023-03-26T14:00:02.471Z,11.80
2023-03-26T14:02:43.344Z,11.80
2023-03-26T14:05:18.691Z,11.80
2023-03-26T14:07:52.543Z,11.90
2023-03-26T14:10:24.904Z,11.80
2023-03-26T14:12:58.106Z,11.90
2023-03-26T14:15:31.746Z,11.90
2023-03-26T14:18:06.778Z,11.90
2023-03-26T14:21:05.922Z,11.90
2023-03-26T14:24:03.174Z,11.90
2023-03-26T14:26:47.845Z,11.90
2023-03-26T14:29:32.873Z,11.90
2023-03-26T14:32:24.195Z,11.90
2023-03-26T14:35:05.976Z,11.90
2023-03-26T14:38:08.268Z,11.90
2023-03-26T14:40:53.880Z,11.90
2023-03-26T14:43:50.796Z,11.90
2023-03-26T14:46:32.508Z,11.90
2023-03-26T14:49:38.344Z,11.80
2023-03-26T14:52:14.899Z,11.90
2023-03-26T14:54:48.836Z,11.90
2023-03-26T14:57:40.093Z,11.90
2023-03-26T15:00:51.317Z,11.90
2023-03-26T15:03:55.337Z,11.90
2023-03-26T15:07:07.392Z,11.90
2023-03-26T15:10:13.155Z,11.90
2023-03-26T15:13:04.522Z,11.90
2023-03-26T15:16:19.476Z,11.80
2023-03-26T15:19:26.383Z,11.80
2023-03-26T15:22:41.234Z,11.80
2023-03-26T15:25:50.482Z,11.80
2023-03-26T15:28:57.709Z,11.70
2023-03-26T15:31:43.217Z,11.70
2023-03-26T15:34:39.845Z,11.70
2023-03-26T15:37:48.745Z,11.70
2023-03-26T15:40:33.029Z,11.80
2023-03-26T15:43:11.623Z,11.60
2023-03-26T15:45:42.989Z,11.60
2023-03-26T15:48:30.130Z,11.50
2023-03-26T15:51:08.258Z,11.50
2023-03-26T15:53:44.855Z,11.50
2023-03-26T15:56:25.901Z,11.50
2023-03-26T15:59:02.736Z,11.50
2023-03-26T16:01:44.697Z,11.50
2023-03-26T16:04:30.761Z,11.50
2023-03-26T16:07:03.661Z,11.50
2023-03-26T16:09:58.060Z,11.50
2023-03-26T16:12:33.525Z,11.50
2023-03-26T16:15:29.649Z,11.50
2023-03-26T16:18:35.885Z,11.40
2023-03-26T16:21:32.213Z,11.40
2023-03-26T16:24:21.766Z,11.40
2023-03-26T16:27:09.242Z,11.40
2023-03-26T16:30:11.114Z,11.40
2023-03-26T16:32:46.027Z,11.40
2023-03-26T16:35:40.095Z,11.40
2023-03-26T16:38:14.276Z,11.30
2023-03-26T16:41:03.732Z,11.30
2023-03-26T16:44:02.370Z,11.30
2023-03-26T16:46:39.277Z,11.30
2023-03-26T16:49:21.042Z,10.90
2023-03-26T16:52:09.774Z,11.30
2023-03-26T16:54:47.922Z,11.20
2023-03-26T16:57:28.055Z,11.30
2023-03-26T17:00:23.405Z,11.30
2023-03-26T17:03:00.084Z,11.30
2023-03-26T17:05:37.861Z,11.20
2023-03-26T17:08:16.414Z,11.20
2023-03-26T17:10:57.553Z,11.20
2023-03-26T17:13:33.577Z,11.20
2023-03-26T17:16:11.650Z,11.20
2023-03-26T17:18:47.884Z,11.20
2023-03-26T17:21:23.077Z,11.20
2023-03-26T17:24:15.464Z,11.20
2023-03-26T17:27:00.507Z,11.20
2023-03-26T17:29:52.744Z,11.30
2023-03-26T17:32:23.229Z,11.20
2023-03-26T17:35:02.250Z,11.20
2023-03-26T17:37:50.519Z,11.20
2023-03-26T17:40:48.165Z,11.10
2023-03-26T17:43:36.679Z,11.00
2023-03-26T17:46:12.549Z,11.00
2023-03-26T17:48:47.027Z,11.00
2023-03-26T17:51:31.763Z,11.00
2023-03-26T17:54:02.286Z,10.90
2023-03-26T17:56:33.016Z,10.90
2023-03-26T17:59:11.666Z,10.90
2023-03-26T18:01:45.365Z,10.90
2023-03-26T18:04:19.784Z,10.80
2023-03-26T18:07:04.086Z,10.80
2023-03-26T18:09:49.063Z,10.80
2023-03-26T18:12:53.401Z,10.80
2023-03-26T18:15:51.166Z,10.80
2023-03-26T18:18:23.350Z,10.80
2023-03-26T18:20:55.072Z,10.80
2023-03-26T18:23:27.856Z,10.80
2023-03-26T18:26:00.636Z,10.70
2023-03-26T18:28:35.944Z,10.70
2023-03-26T18:31:18.735Z,10.70
2023-03-26T18:33:49.929Z,10.70
2023-03-26T18:36:19.805Z,10.70
2023-03-26T18:38:48.952Z,10.70
2023-03-26T18:41:27.451Z,10.60
2023-03-26T18:43:57.508Z,10.60
2023-03-26T18:46:27.300Z,10.60
2023-03-26T18:48:56.997Z,10.60
2023-03-26T18:51:29.532Z,10.60
2023-03-26T18:54:01.881Z,10.60
2023-03-26T18:56:34.677Z,10.60
2023-03-26T18:59:05.235Z,10.50
2023-03-26T19:01:36.667Z,10.50
2023-03-26T19:04:08.018Z,10.50
2023-03-26T19:06:41.266Z,10.50
2023-03-26T19:09:28.125Z,10.40
2023-03-26T19:12:06.963Z,10.50
2023-03-26T19:14:51.540Z,10.40
2023-03-26T19:17:20.300Z,10.40
2023-03-26T19:19:50.075Z,10.40
2023-03-26T19:22:19.196Z,10.50
2023-03-26T19:24:55.914Z,10.50
2023-03-26T19:27:26.247Z,10.50
2023-03-26T19:29:54.746Z,10.40
2023-03-26T19:32:32.383Z,10.40
2023-03-26T19:35:02.232Z,10.40
2023-03-26T19:37:33.373Z,10.30
2023-03-26T19:40:07.348Z,10.30
2023-03-26T19:42:44.138Z,10.30
2023-03-26T19:45:28.110Z,10.20
2023-03-26T19:48:11.769Z,10.20
2023-03-26T19:50:46.033Z,10.20
2023-03-26T19:53:22.537Z,10.20
2023-03-26T19:55:55.684Z,10.20
2023-03-26T19:58:27.168Z,10.40
2023-03-26T20:00:57.128Z,10.10
2023-03-26T20:03:29.904Z,10.10
2023-03-26T20:05:58.883Z,10.10
2023-03-26T20:08:28.048Z,10.00
2023-03-26T20:10:58.350Z,10.00
2023-03-26T20:13:30.223Z,9.90
2023-03-26T20:16:06.438Z,9.90
2023-03-26T20:18:35.496Z,9.90
2023-03-26T20:21:03.990Z,9.90
2023-03-26T20:23:32.765Z,9.90
2023-03-26T20:26:01.526Z,9.90
2023-03-26T20:28:35.406Z,9.90
2023-03-26T20:31:15.034Z,9.90
2023-03-26T20:33:43.916Z,9.90
2023-03-26T20:36:14.202Z,9.90
2023-03-26T20:39:01.646Z,9.90
2023-03-26T20:41:30.028Z,9.90
2023-03-26T20:44:00.116Z,9.90
2023-03-26T20:46:31.051Z,9.90
2023-03-26T20:49:00.938Z,9.80
2023-03-26T20:51:30.063Z,9.80
2023-03-26T20:53:58.816Z,9.80
2023-03-26T20:56:28.255Z,9.80
2023-03-26T20:59:09.823Z,9.80
2023-03-26T21:01:41.681Z,9.80
2023-03-26T21:04:11.744Z,9.80
2023-03-26T21:06:40.288Z,9.80
2023-03-26T21:09:10.747Z,9.70
2023-03-26T21:11:50.339Z,9.70
2023-03-26T21:14:22.660Z,9.70
2023-03-26T21:16:53.165Z,9.70
2023-03-26T21:19:22.507Z,9.70
2023-03-26T21:22:00.974Z,9.40
2023-03-26T21:24:55.332Z,9.50
2023-03-26T21:27:28.443Z,9.50
2023-03-26T21:29:58.291Z,9.50
2023-03-26T21:32:29.113Z,9.50
2023-03-26T21:34:59.516Z,9.50
2023-03-26T21:37:28.900Z,9.50
2023-03-26T21:39:57.886Z,9.50
2023-03-26T21:42:29.494Z,9.50
2023-03-26T21:44:58.666Z,9.50
2023-03-26T21:47:29.309Z,9.50
2023-03-26T21:49:58.238Z,9.50
2023-03-26T21:52:27.403Z,9.50
2023-03-26T21:55:00.759Z,9.50
2023-03-26T21:57:43.543Z,9.40
2023-03-26T22:00:15.540Z,9.40
2023-03-26T22:03:00.672Z,9.40
2023-03-26T22:05:36.400Z,9.40
2023-03-26T22:08:07.101Z,9.40
2023-03-26T22:10:35.503Z,9.40
2023-03-26T22:13:03.829Z,9.40
2023-03-26T22:15:32.374Z,9.30
2023-03-26T22:18:07.424Z,9.20
2023-03-26T22:20:35.936Z,9.20
2023-03-26T22:23:05.765Z,9.20
2023-03-26T22:25:34.211Z,9.20
2023-03-26T22:28:02.725Z,9.20
2023-03-26T22:30:31.666Z,9.20
2023-03-26T22:33:00.115Z,9.10
2023-03-26T22:35:29.948Z,9.10
2023-03-26T22:38:00.940Z,9.10
2023-03-26T22:40:29.911Z,9.10
2023-03-26T22:42:58.313Z,9.00
2023-03-26T22:45:27.935Z,9.00
2023-03-26T22:48:03.456Z,9.00
2023-03-26T22:50:34.897Z,9.00
2023-03-26T22:53:03.239Z,9.00
2023-03-26T22:55:32.348Z,8.90
2023-03-26T22:58:04.891Z,8.90
2023-03-26T23:00:34.838Z,8.80
2023-03-26T23:03:04.562Z,8.80
2023-03-26T23:05:34.779Z,8.70
2023-03-26T23:08:03.192Z,8.70
2023-03-26T23:10:31.570Z,8.60
2023-03-26T23:12:59.927Z,8.60
2023-03-26T23:15:28.179Z,8.70
2023-03-26T23:17:56.562Z,8.60
2023-03-26T23:20:25.351Z,8.60
2023-03-26T23:22:55.812Z,8.60
2023-03-26T23:25:24.109Z,8.60
2023-03-26T23:27:53.768Z,8.90
2023-03-26T23:30:22.138Z,8.60
2023-03-26T23:32:50.467Z,8.60
2023-03-26T23:35:18.784Z,8.60
2023-03-26T23:37:47.152Z,8.60
2023-03-26T23:40:17.053Z,8.60
2023-03-26T23:42:47.450Z,8.60
2023-03-26T23:45:16.489Z,8.60
2023-03-26T23:47:45.018Z,8.60
2023-03-26T23:50:13.309Z,8.60
2023-03-26T23:52:41.685Z,8.60
2023-03-26T23:55:10.765Z,8.60
2023-03-26T23:57:40.587Z,8.60
